Akson Serin — 3FAM6 — position and weather

sailwx.info

Track history (hours):
 
Tides and Currents Weather Stations Pressure Air Temp Water Temp Dewpoint Dewpoint Depression Visibility Wind Speed Wind Dir Waves Ship Positions

Akson Serin

Last reported at 2017-Nov-14 10:06 UTC. Time now 2017-Nov-21 04:40 UTC.
Position N 36°01' W 005°13'.

Length 190 m; draft 10.4 m.

Type: Cargo ship. MMSI: 354912000.

Date/timePositionNaut miles runAvg speedWind from/ knotsBaromVisibWave heightAir tempDewpointWater temp
2017-Nov-14 10:06N 36°01' W 005°13'115.2
2017-Nov-14 10:00N 36°01' W 005°15'612.0
2017-Nov-14 09:31N 36°04' W 005°21'3 0.7
2017-Nov-14 04:23N 36°08' W 005°22'0 0.6
2017-Nov-14 04:00N 36°07' W 005°22'2 3.6
2017-Nov-14 03:30N 36°05' W 005°21'1 1.8
2017-Nov-14 03:00N 36°05' W 005°22'1 2.6
2017-Nov-14 02:30N 36°06' W 005°24'0 0.1
2017-Nov-14 01:53N 36°06' W 005°24'0 0.1
2017-Nov-14 01:29N 36°06' W 005°24'0 0.1
2017-Nov-14 00:59N 36°06' W 005°24'0 0.0
2017-Nov-14 00:29N 36°06' W 005°24'0 0.0
2017-Nov-13 23:59N 36°06' W 005°24'0 0.0
2017-Nov-13 23:29N 36°06' W 005°24'0 0.1
2017-Nov-13 22:59N 36°06' W 005°24'0 0.0
2017-Nov-13 22:29N 36°06' W 005°24'0 0.0
2017-Nov-13 21:53N 36°06' W 005°24'266 9.9
2017-Nov-12 18:55N 33°02' W 009°17'511.2
2017-Nov-12 18:29N 32°58' W 009°20'5610.9
2017-Nov-12 13:20N 32°16' W 010°04'510.5
2017-Nov-12 12:54N 32°12' W 010°08'7111.2
2017-Nov-12 06:32N 31°14' W 010°57'111.9
2017-Nov-12 06:28N 31°14' W 010°57'611.8
2017-Nov-12 05:59N 31°09' W 011°01'611.7
2017-Nov-12 05:29N 31°04' W 011°05'711.5
2017-Nov-12 04:50N 30°58' W 011°09'5010.9
2017-Nov-12 00:15N 30°17' W 011°43'410.6
2017-Nov-11 23:52N 30°14' W 011°46'410.6
2017-Nov-11 23:29N 30°10' W 011°48'12110.7
2017-Nov-11 12:10N 28°31' W 013°07'210.8
2017-Nov-11 12:00N 28°29' W 013°08'1110.9
2017-Nov-11 11:02N 28°20' W 013°14'110.8
2017-Nov-11 10:59N 28°20' W 013°15'810.8
2017-Nov-11 10:17N 28°14' W 013°19'410.9
2017-Nov-11 09:55N 28°10' W 013°22'710.7
2017-Nov-11 09:17N 28°05' W 013°26'310.6
2017-Nov-11 09:00N 28°02' W 013°28'910.3
2017-Nov-11 08:10N 27°56' W 013°35'210.4
2017-Nov-11 08:01N 27°55' W 013°37'510.6
2017-Nov-11 07:31N 27°51' W 013°40'510.6
2017-Nov-11 07:01N 27°46' W 013°42'5 9.4
2017-Nov-11 06:31N 27°43' W 013°46'510.2
2017-Nov-11 06:01N 27°40' W 013°50'5 9.9
2017-Nov-11 05:31N 27°36' W 013°54'510.4
2017-Nov-11 05:00N 27°32' W 013°58'510.7
2017-Nov-11 04:31N 27°28' W 014°01'611.0
2017-Nov-11 03:58N 27°23' W 014°06'611.1
2017-Nov-11 03:27N 27°19' W 014°10'810.7
2017-Nov-11 02:43N 27°13' W 014°16'210.7
2017-Nov-11 02:30N 27°11' W 014°18'510.3
2017-Nov-11 02:00N 27°07' W 014°21'510.0
2017-Nov-11 01:29N 27°03' W 014°24'510.1
2017-Nov-11 01:00N 26°59' W 014°27'510.0
2017-Nov-11 00:30N 26°55' W 014°31'510.1
2017-Nov-11 00:00N 26°52' W 014°35'1810.1
2017-Nov-10 22:15N 26°39' W 014°49'6010.3
2017-Nov-10 16:27N 25°54' W 015°33'611.2
2017-Nov-10 15:55N 25°49' W 015°37'611.0
2017-Nov-10 15:25N 25°45' W 015°41'510.8
2017-Nov-10 15:00N 25°42' W 015°45'510.9
2017-Nov-10 14:31N 25°38' W 015°49'610.8
2017-Nov-10 13:59N 25°34' W 015°53'611.1
2017-Nov-10 13:29N 25°29' W 015°57'511.2
2017-Nov-10 13:00N 25°25' W 016°00'611.3
2017-Nov-10 12:31N 25°21' W 016°04'1011.8
2017-Nov-10 11:38N 25°13' W 016°12'711.6
2017-Nov-10 11:04N 25°08' W 016°17'111.7
2017-Nov-10 10:57N 25°07' W 016°18'  
Track history (hours):
 
Tides and Currents Weather Stations Pressure Air Temp Water Temp Dewpoint Dewpoint Depression Visibility Wind Speed Wind Dir Waves Ship Positions

Akson Serin

Last reported at 2017-Nov-14 10:06 UTC. Time now 2017-Nov-21 04:40 UTC.
Position N 36°01' W 005°13'.

Length 190 m; draft 10.4 m.

Type: Cargo ship. MMSI: 354912000.

Date/timePositionNaut miles runAvg speedWind from/ knotsBaromVisibWave heightAir tempDewpointWater temp
2017-Nov-14 10:06N 36°01' W 005°13'115.2
2017-Nov-14 10:00N 36°01' W 005°15'612.0
2017-Nov-14 09:31N 36°04' W 005°21'3 0.7
2017-Nov-14 04:23N 36°08' W 005°22'0 0.6
2017-Nov-14 04:00N 36°07' W 005°22'2 3.6
2017-Nov-14 03:30N 36°05' W 005°21'1 1.8
2017-Nov-14 03:00N 36°05' W 005°22'1 2.6
2017-Nov-14 02:30N 36°06' W 005°24'0 0.1
2017-Nov-14 01:53N 36°06' W 005°24'0 0.1
2017-Nov-14 01:29N 36°06' W 005°24'0 0.1
2017-Nov-14 00:59N 36°06' W 005°24'0 0.0
2017-Nov-14 00:29N 36°06' W 005°24'0 0.0
2017-Nov-13 23:59N 36°06' W 005°24'0 0.0
2017-Nov-13 23:29N 36°06' W 005°24'0 0.1
2017-Nov-13 22:59N 36°06' W 005°24'0 0.0
2017-Nov-13 22:29N 36°06' W 005°24'0 0.0
2017-Nov-13 21:53N 36°06' W 005°24'266 9.9
2017-Nov-12 18:55N 33°02' W 009°17'511.2
2017-Nov-12 18:29N 32°58' W 009°20'5610.9
2017-Nov-12 13:20N 32°16' W 010°04'510.5
2017-Nov-12 12:54N 32°12' W 010°08'7111.2
2017-Nov-12 06:32N 31°14' W 010°57'111.9
2017-Nov-12 06:28N 31°14' W 010°57'611.8
2017-Nov-12 05:59N 31°09' W 011°01'611.7
2017-Nov-12 05:29N 31°04' W 011°05'711.5
2017-Nov-12 04:50N 30°58' W 011°09'5010.9
2017-Nov-12 00:15N 30°17' W 011°43'410.6
2017-Nov-11 23:52N 30°14' W 011°46'410.6
2017-Nov-11 23:29N 30°10' W 011°48'12110.7
2017-Nov-11 12:10N 28°31' W 013°07'210.8
2017-Nov-11 12:00N 28°29' W 013°08'1110.9
2017-Nov-11 11:02N 28°20' W 013°14'110.8
2017-Nov-11 10:59N 28°20' W 013°15'810.8
2017-Nov-11 10:17N 28°14' W 013°19'410.9
2017-Nov-11 09:55N 28°10' W 013°22'710.7
2017-Nov-11 09:17N 28°05' W 013°26'310.6
2017-Nov-11 09:00N 28°02' W 013°28'910.3
2017-Nov-11 08:10N 27°56' W 013°35'210.4
2017-Nov-11 08:01N 27°55' W 013°37'510.6
2017-Nov-11 07:31N 27°51' W 013°40'510.6
2017-Nov-11 07:01N 27°46' W 013°42'5 9.4
2017-Nov-11 06:31N 27°43' W 013°46'510.2
2017-Nov-11 06:01N 27°40' W 013°50'5 9.9
2017-Nov-11 05:31N 27°36' W 013°54'510.4
2017-Nov-11 05:00N 27°32' W 013°58'510.7
2017-Nov-11 04:31N 27°28' W 014°01'611.0
2017-Nov-11 03:58N 27°23' W 014°06'611.1
2017-Nov-11 03:27N 27°19' W 014°10'810.7
2017-Nov-11 02:43N 27°13' W 014°16'210.7
2017-Nov-11 02:30N 27°11' W 014°18'510.3
2017-Nov-11 02:00N 27°07' W 014°21'510.0
2017-Nov-11 01:29N 27°03' W 014°24'510.1
2017-Nov-11 01:00N 26°59' W 014°27'510.0
2017-Nov-11 00:30N 26°55' W 014°31'510.1
2017-Nov-11 00:00N 26°52' W 014°35'1810.1
2017-Nov-10 22:15N 26°39' W 014°49'6010.3
2017-Nov-10 16:27N 25°54' W 015°33'611.2
2017-Nov-10 15:55N 25°49' W 015°37'611.0
2017-Nov-10 15:25N 25°45' W 015°41'510.8
2017-Nov-10 15:00N 25°42' W 015°45'510.9
2017-Nov-10 14:31N 25°38' W 015°49'610.8
2017-Nov-10 13:59N 25°34' W 015°53'611.1
2017-Nov-10 13:29N 25°29' W 015°57'511.2
2017-Nov-10 13:00N 25°25' W 016°00'611.3
2017-Nov-10 12:31N 25°21' W 016°04'1011.8
2017-Nov-10 11:38N 25°13' W 016°12'711.6
2017-Nov-10 11:04N 25°08' W 016°17'111.7
2017-Nov-10 10:57N 25°07' W 016°18'  

Dump ship's entire track history